Time;durP1;ratioP1;P1;durP2;ratioP2;P2;SDS_P1;SDS_P2;PMS_P1;PMS_P2;Temp;Humidity;BMP_temperature;BMP_pressure;BME280_temperature;BME280_humidity;BME280_pressure;Samples;Min_cycle;Max_cycle;Signal;HPM_P1;HPM_P2
2023/05/26 00:00:09;;;;;;;6.63;1.60;;;14.70;65.00;;;;;;5030127;28;20257;-83
2023/05/26 00:02:39;;;;;;;5.28;2.10;;;14.70;65.20;;;;;;5046390;28;20440;-82
2023/05/26 00:05:09;;;;;;;7.35;2.08;;;14.60;65.30;;;;;;5034041;28;20383;-82
2023/05/26 00:07:39;;;;;;;5.80;1.95;;;14.60;65.50;;;;;;5023635;28;20597;-81
2023/05/26 00:10:07;;;;;;;5.57;1.67;;;14.60;65.70;;;;;;5039113;28;20032;-81
2023/05/26 00:12:33;;;;;;;6.03;1.80;;;14.60;65.30;;;;;;5017265;28;20692;-81
2023/05/26 00:14:59;;;;;;;6.55;1.88;;;14.50;65.30;;;;;;5015018;28;20123;-82
2023/05/26 00:17:25;;;;;;;4.72;1.88;;;14.50;65.30;;;;;;5027497;28;20056;-81
2023/05/26 00:19:52;;;;;;;7.63;1.80;;;14.50;65.30;;;;;;5017716;28;20051;-82
2023/05/26 00:22:18;;;;;;;6.18;1.80;;;14.50;65.40;;;;;;5054128;28;20073;-82
2023/05/26 00:24:45;;;;;;;9.40;2.22;;;14.40;65.50;;;;;;5023300;28;20232;-82
2023/05/26 00:27:11;;;;;;;7.88;2.15;;;14.40;65.60;;;;;;5053790;28;20058;-83
2023/05/26 00:29:37;;;;;;;7.95;1.80;;;14.30;65.80;;;;;;5014520;28;20037;-80
2023/05/26 00:32:06;;;;;;;6.03;1.93;;;14.30;65.80;;;;;;5051638;28;20276;-80
2023/05/26 00:34:35;;;;;;;6.65;1.77;;;14.20;65.90;;;;;;5049377;28;20082;-82
2023/05/26 00:37:02;;;;;;;4.68;1.90;;;14.20;65.90;;;;;;5057443;28;20052;-82
2023/05/26 00:39:29;;;;;;;4.85;1.52;;;14.20;65.90;;;;;;5027714;28;20028;-82
2023/05/26 00:41:55;;;;;;;4.30;1.70;;;14.20;66.10;;;;;;5050635;28;20270;-83
2023/05/26 00:44:22;;;;;;;7.00;1.70;;;14.20;66.20;;;;;;5062882;28;20107;-80
2023/05/26 00:46:48;;;;;;;6.18;1.92;;;14.10;66.00;;;;;;5050175;28;20241;-83
2023/05/26 00:49:14;;;;;;;6.63;1.70;;;14.10;66.10;;;;;;5050446;28;20032;-83
2023/05/26 00:51:42;;;;;;;6.63;1.75;;;14.10;66.30;;;;;;5034585;28;20036;-82
2023/05/26 00:54:09;;;;;;;6.43;1.60;;;14.00;66.40;;;;;;5014681;28;20116;-82
2023/05/26 00:56:35;;;;;;;5.53;1.57;;;14.00;66.40;;;;;;5046380;28;20024;-81
2023/05/26 00:59:03;;;;;;;4.35;1.70;;;13.90;66.30;;;;;;5033672;28;20013;-82
2023/05/26 01:01:38;;;;;;;7.22;1.70;;;13.90;66.60;;;;;;5036987;28;20548;-82
2023/05/26 01:04:04;;;;;;;5.40;1.60;;;13.90;67.30;;;;;;5047578;28;20016;-81
2023/05/26 01:06:31;;;;;;;5.93;1.70;;;13.80;66.70;;;;;;5045048;28;20028;-80
2023/05/26 01:08:58;;;;;;;5.43;1.60;;;13.80;66.70;;;;;;5015276;28;20768;-80
2023/05/26 01:11:50;;;;;;;6.38;1.55;;;13.80;66.80;;;;;;5045587;28;20393;-82
2023/05/26 01:14:41;;;;;;;5.40;1.70;;;13.80;67.20;;;;;;5024426;28;20024;-81
2023/05/26 01:17:13;;;;;;;8.00;1.70;;;13.70;67.80;;;;;;5070346;27;20140;-80
2023/05/26 01:20:08;;;;;;;5.88;1.60;;;13.70;67.00;;;;;;5049866;28;20059;-80
2023/05/26 01:22:43;;;;;;;7.20;1.87;;;13.60;67.50;;;;;;5039601;28;20033;-81
2023/05/26 01:25:31;;;;;;;5.72;1.80;;;13.60;67.30;;;;;;5008768;28;20596;-81
2023/05/26 01:28:16;;;;;;;5.82;1.50;;;13.50;68.40;;;;;;5083184;27;20055;-81
2023/05/26 01:30:43;;;;;;;3.28;1.15;;;13.50;68.50;;;;;;5071178;28;20494;-81
2023/05/26 01:33:09;;;;;;;5.88;1.52;;;13.50;67.50;;;;;;5030780;28;20055;-80
2023/05/26 01:35:35;;;;;;;4.07;1.30;;;13.50;67.50;;;;;;5070170;27;20028;-81
2023/05/26 01:38:03;;;;;;;5.85;1.70;;;13.50;67.20;;;;;;5049851;28;20024;-82
2023/05/26 01:40:29;;;;;;;7.78;1.60;;;13.40;67.60;;;;;;5017324;28;20354;-81
2023/05/26 01:43:19;;;;;;;6.63;1.87;;;13.40;67.50;;;;;;5049585;28;20028;-81
2023/05/26 01:46:10;;;;;;;6.32;1.75;;;13.40;68.20;;;;;;5048336;28;20036;-83
2023/05/26 01:48:40;;;;;;;4.63;1.20;;;13.40;68.80;;;;;;5070099;27;20025;-82
2023/05/26 01:51:09;;;;;;;4.97;1.25;;;13.30;67.70;;;;;;5046999;28;20032;-81
2023/05/26 01:53:38;;;;;;;4.43;1.17;;;13.30;67.80;;;;;;5035456;28;20016;-81
2023/05/26 01:56:05;;;;;;;6.63;1.50;;;13.30;67.90;;;;;;5014545;28;20032;-80
2023/05/26 01:58:32;;;;;;;5.63;1.40;;;13.30;67.80;;;;;;5047727;28;20145;-84
2023/05/26 02:00:58;;;;;;;6.18;1.70;;;13.20;67.90;;;;;;5037367;28;20044;-81
2023/05/26 02:03:24;;;;;;;5.18;1.20;;;13.20;67.90;;;;;;5018300;28;20091;-82
2023/05/26 02:05:50;;;;;;;5.45;1.30;;;13.20;68.90;;;;;;5044551;28;20040;-82
2023/05/26 02:08:16;;;;;;;5.73;1.53;;;13.20;68.20;;;;;;5045134;28;20204;-83
2023/05/26 02:10:42;;;;;;;5.13;1.33;;;13.20;68.20;;;;;;5050629;28;20028;-83
2023/05/26 02:13:08;;;;;;;4.93;1.60;;;13.20;68.20;;;;;;5024884;28;20437;-82
2023/05/26 02:15:34;;;;;;;5.33;2.00;;;13.20;68.10;;;;;;5048865;28;20510;-80
2023/05/26 02:18:02;;;;;;;6.30;1.60;;;13.10;68.10;;;;;;5033746;28;20554;-79
2023/05/26 02:20:29;;;;;;;6.53;1.40;;;13.10;68.20;;;;;;5037267;28;20082;-79
2023/05/26 02:22:54;;;;;;;4.03;1.38;;;13.00;68.20;;;;;;5034329;28;20024;-81
2023/05/26 02:25:20;;;;;;;5.70;1.70;;;13.00;68.40;;;;;;5046741;28;20250;-81
2023/05/26 02:27:46;;;;;;;5.10;1.40;;;13.00;68.50;;;;;;5020700;28;20040;-83
2023/05/26 02:30:12;;;;;;;4.70;1.58;;;12.90;68.50;;;;;;5042463;28;20245;-80
2023/05/26 02:32:38;;;;;;;4.90;1.40;;;12.90;68.70;;;;;;5049090;28;20044;-83
2023/05/26 02:35:04;;;;;;;5.53;1.40;;;12.90;68.90;;;;;;5034527;28;20378;-81
2023/05/26 02:37:30;;;;;;;6.82;1.52;;;12.80;68.90;;;;;;5046884;28;20032;-83
2023/05/26 02:39:57;;;;;;;4.53;1.37;;;12.80;68.90;;;;;;5064148;28;20021;-82
2023/05/26 02:42:23;;;;;;;5.85;1.33;;;12.80;68.70;;;;;;5040809;28;23242;-81
2023/05/26 02:44:48;;;;;;;6.13;1.65;;;12.80;69.00;;;;;;5057451;27;20379;-82
2023/05/26 02:47:14;;;;;;;4.85;1.40;;;12.80;68.90;;;;;;5044178;28;20063;-84
2023/05/26 02:49:42;;;;;;;5.33;1.40;;;12.80;69.00;;;;;;5045562;28;20029;-83
2023/05/26 02:52:08;;;;;;;5.53;1.48;;;12.70;69.20;;;;;;5039861;28;20111;-82
2023/05/26 02:54:34;;;;;;;4.93;1.40;;;12.70;69.30;;;;;;5050517;28;20104;-83
2023/05/26 02:57:00;;;;;;;5.93;1.60;;;12.70;69.20;;;;;;5049294;28;20052;-81
2023/05/26 02:59:26;;;;;;;5.23;1.40;;;12.70;69.30;;;;;;5020526;28;20021;-82
2023/05/26 03:01:52;;;;;;;5.38;1.63;;;12.70;69.20;;;;;;5044932;28;20037;-80
2023/05/26 03:04:17;;;;;;;4.30;1.23;;;12.60;69.20;;;;;;5041545;28;20029;-81
2023/05/26 03:06:43;;;;;;;5.25;1.50;;;12.60;69.20;;;;;;5060426;28;20028;-82
2023/05/26 03:09:09;;;;;;;4.63;1.25;;;12.60;69.40;;;;;;5049322;28;20382;-82
2023/05/26 03:11:35;;;;;;;7.10;1.57;;;12.50;69.30;;;;;;5076826;28;20544;-82
2023/05/26 03:14:01;;;;;;;5.43;1.33;;;12.50;69.40;;;;;;5038600;28;20485;-81
2023/05/26 03:16:27;;;;;;;4.00;1.60;;;12.50;69.60;;;;;;5042565;28;20756;-82
2023/05/26 03:18:53;;;;;;;6.90;1.40;;;12.40;69.40;;;;;;5064123;28;20013;-80
2023/05/26 03:21:19;;;;;;;5.70;1.38;;;12.40;69.60;;;;;;5035487;28;20381;-81
2023/05/26 03:23:45;;;;;;;7.43;1.77;;;12.40;69.70;;;;;;5037485;28;20036;-81
2023/05/26 03:26:11;;;;;;;6.47;1.63;;;12.40;69.80;;;;;;5046290;28;20032;-81
2023/05/26 03:28:37;;;;;;;8.33;1.77;;;12.30;69.80;;;;;;5036112;28;20115;-82
2023/05/26 03:31:03;;;;;;;4.45;1.38;;;12.30;69.90;;;;;;5024294;28;20028;-81
2023/05/26 03:33:31;;;;;;;4.80;1.27;;;12.30;70.20;;;;;;5074228;28;20326;-82
2023/05/26 03:36:00;;;;;;;3.42;1.20;;;12.30;70.20;;;;;;5046471;28;20030;-82
2023/05/26 03:38:27;;;;;;;6.20;1.40;;;12.20;70.40;;;;;;5056141;28;20090;-82
2023/05/26 03:40:52;;;;;;;5.47;1.50;;;12.20;70.00;;;;;;5045816;28;20031;-83
2023/05/26 03:43:18;;;;;;;5.90;1.40;;;12.20;70.40;;;;;;5034409;28;20052;-80
2023/05/26 03:45:45;;;;;;;5.83;1.33;;;12.20;70.60;;;;;;5014999;28;20108;-82
2023/05/26 03:48:13;;;;;;;6.60;1.50;;;12.10;70.50;;;;;;5044411;28;20894;-81
2023/05/26 03:50:41;;;;;;;5.30;1.50;;;12.10;70.30;;;;;;5041064;28;20067;-82
2023/05/26 03:53:08;;;;;;;5.68;1.40;;;12.10;70.40;;;;;;5068304;28;20028;-81
2023/05/26 03:55:34;;;;;;;5.93;1.30;;;12.10;70.60;;;;;;5060244;28;20079;-83
2023/05/26 03:58:00;;;;;;;4.93;1.30;;;12.10;70.50;;;;;;5084568;27;20298;-81
2023/05/26 04:00:28;;;;;;;4.80;1.45;;;12.00;70.60;;;;;;5035153;28;20483;-82
2023/05/26 04:02:54;;;;;;;5.63;1.50;;;12.00;70.60;;;;;;5034450;28;20087;-81
2023/05/26 04:05:20;;;;;;;7.82;1.65;;;12.00;70.60;;;;;;5045862;28;20037;-81
2023/05/26 04:07:47;;;;;;;9.13;1.70;;;12.00;70.90;;;;;;5037249;28;20028;-82
2023/05/26 04:10:12;;;;;;;5.63;1.50;;;12.00;70.80;;;;;;5034154;28;20040;-80
2023/05/26 04:12:38;;;;;;;7.82;2.17;;;12.00;70.90;;;;;;5049055;28;20348;-82
2023/05/26 04:15:04;;;;;;;6.17;1.53;;;11.90;71.00;;;;;;5039059;28;20032;-82
2023/05/26 04:17:33;;;;;;;5.20;1.83;;;11.90;71.20;;;;;;5017536;28;20308;-82
2023/05/26 04:19:59;;;;;;;5.28;1.40;;;11.90;71.50;;;;;;5050397;28;20012;-82
2023/05/26 04:22:24;;;;;;;6.30;1.55;;;11.90;71.30;;;;;;5045802;28;20625;-83
2023/05/26 04:24:50;;;;;;;5.85;1.38;;;11.90;71.30;;;;;;5040208;28;20025;-84
2023/05/26 04:27:16;;;;;;;4.17;1.30;;;11.90;71.40;;;;;;5047449;28;20021;-80
2023/05/26 04:29:42;;;;;;;6.35;1.65;;;11.90;71.40;;;;;;5075177;28;20048;-83
2023/05/26 04:32:08;;;;;;;6.17;1.50;;;11.90;71.50;;;;;;5033026;28;20036;-81
2023/05/26 04:34:34;;;;;;;5.82;1.48;;;12.00;71.60;;;;;;5043565;28;20025;-83
2023/05/26 04:37:04;;;;;;;4.70;1.30;;;12.00;71.50;;;;;;5037547;28;20670;-80
2023/05/26 04:39:31;;;;;;;6.32;1.42;;;12.00;71.60;;;;;;5042578;28;20022;-82
2023/05/26 04:41:58;;;;;;;6.87;1.50;;;12.00;71.60;;;;;;5034665;28;20389;-82
2023/05/26 04:44:24;;;;;;;6.22;1.90;;;12.00;71.60;;;;;;5052426;28;20107;-82
2023/05/26 04:46:52;;;;;;;8.60;1.40;;;12.00;71.70;;;;;;5008583;28;20028;-82
2023/05/26 04:49:22;;;;;;;4.82;1.30;;;12.00;71.60;;;;;;5048035;28;20039;-83
2023/05/26 04:51:56;;;;;;;8.25;1.48;;;11.90;71.90;;;;;;5052252;28;20029;-81
2023/05/26 04:54:22;;;;;;;4.30;1.40;;;12.00;71.90;;;;;;5039449;28;20033;-82
2023/05/26 04:56:48;;;;;;;5.82;1.35;;;12.00;72.00;;;;;;5072194;28;20516;-84
2023/05/26 04:59:17;;;;;;;6.28;1.80;;;12.00;72.10;;;;;;5055484;28;20031;-83
2023/05/26 05:01:47;;;;;;;8.52;1.88;;;12.00;71.90;;;;;;5030605;28;20154;-82
2023/05/26 05:04:13;;;;;;;4.80;1.40;;;12.00;72.10;;;;;;5038286;28;20071;-84
2023/05/26 05:06:39;;;;;;;7.45;1.98;;;12.00;72.10;;;;;;5068198;28;20021;-82
2023/05/26 05:09:05;;;;;;;6.10;1.45;;;12.00;72.40;;;;;;5026758;28;20029;-84
2023/05/26 05:11:31;;;;;;;6.65;1.60;;;12.10;72.40;;;;;;5044616;28;20033;-83
2023/05/26 05:13:57;;;;;;;7.43;1.80;;;12.10;72.50;;;;;;5051003;28;20466;-80
2023/05/26 05:16:23;;;;;;;9.63;2.00;;;12.10;72.40;;;;;;5036346;28;20454;-82
2023/05/26 05:18:49;;;;;;;7.13;1.67;;;12.10;72.40;;;;;;5038139;28;20111;-81
2023/05/26 05:21:15;;;;;;;6.50;1.50;;;12.10;72.40;;;;;;5032407;28;20604;-83
2023/05/26 05:23:41;;;;;;;7.05;1.55;;;12.10;73.30;;;;;;5041062;28;20032;-82
2023/05/26 05:26:06;;;;;;;4.75;1.40;;;12.20;72.60;;;;;;5019011;28;20416;-82
2023/05/26 05:28:32;;;;;;;7.17;1.50;;;12.20;72.70;;;;;;5054633;28;20587;-83
2023/05/26 05:30:58;;;;;;;8.63;1.80;;;12.20;72.80;;;;;;5046023;28;20021;-81
2023/05/26 05:33:25;;;;;;;6.72;1.38;;;12.20;72.90;;;;;;5061373;27;20533;-82
2023/05/26 05:35:51;;;;;;;5.38;1.65;;;12.20;72.80;;;;;;5028175;28;20021;-83
2023/05/26 05:38:16;;;;;;;6.97;1.47;;;12.30;72.70;;;;;;5054194;28;20264;-81
2023/05/26 05:40:42;;;;;;;7.07;1.48;;;12.30;72.90;;;;;;5036400;28;20029;-81
2023/05/26 05:43:08;;;;;;;6.20;1.37;;;12.40;72.90;;;;;;5033770;28;20044;-81
2023/05/26 05:45:34;;;;;;;8.18;1.83;;;12.40;72.70;;;;;;5046588;28;20067;-82
2023/05/26 05:48:00;;;;;;;7.60;1.73;;;12.40;72.70;;;;;;5039180;28;20024;-83
2023/05/26 05:50:25;;;;;;;7.07;1.67;;;12.40;72.70;;;;;;5039022;28;20109;-82
2023/05/26 05:52:52;;;;;;;6.43;1.77;;;12.50;72.90;;;;;;5054818;28;20041;-83
2023/05/26 05:55:18;;;;;;;5.53;1.50;;;12.50;72.90;;;;;;5033286;28;20254;-82
2023/05/26 05:57:44;;;;;;;6.53;1.50;;;12.50;72.90;;;;;;5059894;28;20020;-82
2023/05/26 06:00:11;;;;;;;8.53;1.80;;;12.50;73.00;;;;;;5045568;28;20245;-82
2023/05/26 06:02:37;;;;;;;7.05;1.90;;;12.60;73.30;;;;;;5053663;28;20051;-83
2023/05/26 06:05:03;;;;;;;7.45;2.00;;;12.60;73.20;;;;;;5030367;28;20060;-83
2023/05/26 06:07:30;;;;;;;8.43;1.90;;;12.60;73.30;;;;;;5030289;28;20047;-83
2023/05/26 06:09:57;;;;;;;5.97;1.48;;;12.70;73.40;;;;;;5035212;28;20033;-82
2023/05/26 06:12:23;;;;;;;9.00;1.70;;;12.70;73.50;;;;;;5032818;28;20044;-83
2023/05/26 06:14:51;;;;;;;9.02;2.10;;;12.80;73.60;;;;;;5033032;28;20059;-83
2023/05/26 06:17:17;;;;;;;7.22;1.50;;;12.90;73.70;;;;;;5040960;28;20113;-83
2023/05/26 06:19:43;;;;;;;7.32;1.95;;;12.90;73.60;;;;;;5049791;28;20686;-82
2023/05/26 06:22:09;;;;;;;7.07;2.00;;;12.90;73.40;;;;;;5009518;28;20452;-83
2023/05/26 06:24:35;;;;;;;5.80;1.55;;;13.00;73.50;;;;;;5049242;28;20032;-84
2023/05/26 06:27:01;;;;;;;9.00;2.15;;;13.10;73.70;;;;;;5033258;28;20112;-81
2023/05/26 06:29:26;;;;;;;8.73;1.97;;;13.10;73.60;;;;;;5035106;28;20112;-85
2023/05/26 06:31:52;;;;;;;7.65;2.00;;;13.20;73.70;;;;;;5074302;27;20052;-83
2023/05/26 06:34:18;;;;;;;7.50;1.92;;;13.20;73.70;;;;;;5041166;28;20329;-85
2023/05/26 06:36:44;;;;;;;9.37;2.37;;;13.30;73.60;;;;;;5051073;28;20535;-81
2023/05/26 06:39:10;;;;;;;6.55;1.70;;;13.40;73.70;;;;;;5005877;28;20222;-82
2023/05/26 06:41:36;;;;;;;6.75;1.83;;;13.40;73.70;;;;;;5065231;28;20669;-85
2023/05/26 06:44:01;;;;;;;6.40;1.83;;;13.50;73.80;;;;;;5025291;28;20571;-84
2023/05/26 06:46:27;;;;;;;7.95;1.95;;;13.60;74.00;;;;;;5047175;28;20865;-82
2023/05/26 06:48:53;;;;;;;10.07;2.43;;;13.70;74.00;;;;;;5056712;28;20123;-83
2023/05/26 06:51:19;;;;;;;8.25;2.20;;;13.80;74.00;;;;;;5024428;28;20458;-83
2023/05/26 06:53:45;;;;;;;8.07;1.85;;;13.90;74.00;;;;;;5045609;28;20104;-80
2023/05/26 06:56:11;;;;;;;8.63;1.97;;;14.00;74.00;;;;;;5012299;28;20068;-83
2023/05/26 06:58:37;;;;;;;4.68;1.92;;;14.00;73.90;;;;;;5024342;28;20055;-85
2023/05/26 07:01:03;;;;;;;11.77;2.57;;;14.10;73.80;;;;;;5046723;28;20021;-83
2023/05/26 07:03:30;;;;;;;7.70;1.90;;;14.30;73.80;;;;;;5039696;28;20045;-83
2023/05/26 07:05:56;;;;;;;13.73;2.60;;;14.30;73.50;;;;;;5051200;28;20446;-83
2023/05/26 07:08:23;;;;;;;7.57;2.05;;;14.30;73.20;;;;;;5034189;28;20493;-84
2023/05/26 07:10:49;;;;;;;8.13;2.25;;;14.40;73.20;;;;;;5039075;28;20027;-82
2023/05/26 07:13:15;;;;;;;8.17;2.40;;;14.40;73.10;;;;;;5033080;28;20037;-85
2023/05/26 07:15:42;;;;;;;8.27;2.38;;;14.40;73.00;;;;;;5037887;28;20031;-82
2023/05/26 07:18:08;;;;;;;9.95;2.53;;;14.50;73.80;;;;;;5023597;28;20025;-85
2023/05/26 07:20:34;;;;;;;6.25;2.05;;;14.50;72.90;;;;;;5067388;28;20127;-84
2023/05/26 07:23:00;;;;;;;8.93;2.10;;;14.60;73.30;;;;;;5020920;28;20220;-83
2023/05/26 07:25:26;;;;;;;7.78;1.90;;;14.60;73.20;;;;;;5051714;28;20035;-85
2023/05/26 07:27:52;;;;;;;5.63;1.65;;;14.70;73.20;;;;;;5007032;28;20036;-82
2023/05/26 07:30:19;;;;;;;6.60;1.83;;;14.80;73.40;;;;;;5031466;28;20013;-83
2023/05/26 07:32:45;;;;;;;5.13;1.60;;;14.90;73.40;;;;;;5023917;28;20249;-84
2023/05/26 07:35:11;;;;;;;7.32;2.10;;;15.10;73.20;;;;;;5059549;28;20331;-85
2023/05/26 07:37:38;;;;;;;7.22;2.25;;;15.20;73.10;;;;;;5050470;28;20734;-83
2023/05/26 07:40:04;;;;;;;9.57;2.22;;;15.30;73.30;;;;;;5035162;28;20488;-84
2023/05/26 07:42:31;;;;;;;5.83;1.80;;;15.40;73.60;;;;;;5025050;28;20033;-82
2023/05/26 07:44:57;;;;;;;8.20;2.38;;;15.60;74.10;;;;;;5064737;28;20187;-84
2023/05/26 07:47:23;;;;;;;7.25;2.10;;;15.80;74.10;;;;;;5049309;28;20237;-85
2023/05/26 07:49:49;;;;;;;8.27;2.38;;;16.10;73.90;;;;;;5025956;28;20025;-81
2023/05/26 07:52:15;;;;;;;8.10;2.33;;;16.30;73.60;;;;;;5034419;28;20317;-84
2023/05/26 07:54:41;;;;;;;7.00;1.97;;;16.50;73.30;;;;;;5067344;28;20159;-84
2023/05/26 07:57:07;;;;;;;6.57;2.17;;;16.70;73.60;;;;;;5042704;28;20738;-82
2023/05/26 07:59:33;;;;;;;9.02;2.30;;;16.90;74.20;;;;;;5036774;28;20048;-83
2023/05/26 08:01:59;;;;;;;7.33;2.37;;;17.10;74.90;;;;;;5018579;28;20241;-81
2023/05/26 08:04:24;;;;;;;8.82;2.20;;;17.50;75.10;;;;;;5061837;28;20028;-84
2023/05/26 08:06:50;;;;;;;8.93;2.33;;;17.80;74.60;;;;;;5043086;28;20033;-81
2023/05/26 08:09:16;;;;;;;6.57;2.20;;;18.20;74.30;;;;;;5052223;28;20590;-81
2023/05/26 08:11:42;;;;;;;10.38;2.80;;;18.50;73.70;;;;;;5016191;28;20051;-83
2023/05/26 08:14:07;;;;;;;6.60;1.93;;;18.90;73.50;;;;;;5063454;28;20025;-82
2023/05/26 08:16:33;;;;;;;6.43;2.10;;;19.20;73.70;;;;;;5019185;28;20024;-80
2023/05/26 08:19:00;;;;;;;7.72;2.47;;;19.60;73.80;;;;;;5032636;28;20035;-82
2023/05/26 08:21:26;;;;;;;8.75;2.38;;;20.00;73.10;;;;;;5040662;28;20024;-84
2023/05/26 08:23:51;;;;;;;7.27;2.23;;;20.40;72.80;;;;;;5071698;28;20123;-84
2023/05/26 08:26:17;;;;;;;10.63;2.97;;;20.80;72.30;;;;;;5024430;28;20545;-83
2023/05/26 08:28:43;;;;;;;8.27;2.40;;;21.10;70.90;;;;;;5028727;28;20060;-82
2023/05/26 08:31:09;;;;;;;6.78;2.05;;;21.40;70.20;;;;;;5063780;28;20280;-82
2023/05/26 08:33:35;;;;;;;6.47;2.10;;;21.60;70.00;;;;;;5025119;28;20124;-82
2023/05/26 08:36:01;;;;;;;7.63;2.15;;;22.00;69.70;;;;;;5041446;28;20321;-83
2023/05/26 08:38:29;;;;;;;6.80;2.13;;;22.20;69.30;;;;;;5043206;28;20555;-82
2023/05/26 08:40:57;;;;;;;6.88;2.05;;;22.50;69.50;;;;;;5036432;28;20128;-84
2023/05/26 08:43:32;;;;;;;8.88;2.40;;;22.80;68.30;;;;;;5030766;28;20035;-82
2023/05/26 08:46:01;;;;;;;7.60;2.40;;;23.10;67.10;;;;;;5062696;28;20225;-83
2023/05/26 08:48:27;;;;;;;7.50;2.28;;;23.30;65.10;;;;;;5054051;28;20036;-83
2023/05/26 08:50:56;;;;;;;7.50;2.60;;;23.40;64.60;;;;;;5021662;28;20434;-81
2023/05/26 08:53:24;;;;;;;7.60;2.40;;;23.40;63.10;;;;;;5045232;28;20062;-83
2023/05/26 08:55:50;;;;;;;6.60;2.40;;;23.50;62.80;;;;;;5072691;28;20072;-82
2023/05/26 08:58:18;;;;;;;6.90;2.50;;;23.50;63.10;;;;;;5031071;28;20036;-82
2023/05/26 09:00:45;;;;;;;7.13;2.40;;;23.50;61.80;;;;;;5034963;28;20795;-81
2023/05/26 09:03:11;;;;;;;5.70;2.10;;;23.60;61.40;;;;;;5047265;28;20351;-82
2023/05/26 09:05:37;;;;;;;6.90;2.42;;;23.60;62.10;;;;;;5034627;28;22920;-83
2023/05/26 09:08:04;;;;;;;8.43;2.53;;;23.70;62.10;;;;;;5029022;28;20228;-82
2023/05/26 09:10:32;;;;;;;7.88;2.53;;;23.80;61.20;;;;;;5054336;28;20649;-83
2023/05/26 09:13:03;;;;;;;6.40;2.37;;;23.90;60.60;;;;;;5022432;28;20410;-82
2023/05/26 09:15:29;;;;;;;5.70;2.20;;;24.00;60.30;;;;;;5024170;28;20681;-82
2023/05/26 09:18:06;;;;;;;8.85;2.33;;;24.10;61.10;;;;;;5048079;28;20752;-82
2023/05/26 09:20:33;;;;;;;6.82;2.10;;;24.20;59.50;;;;;;5051554;28;20417;-84
2023/05/26 09:22:59;;;;;;;7.45;2.60;;;24.40;60.00;;;;;;5027796;28;20032;-85
2023/05/26 09:25:35;;;;;;;5.27;2.10;;;24.50;59.30;;;;;;5052067;28;20516;-83
2023/05/26 09:28:10;;;;;;;8.65;2.10;;;24.60;58.90;;;;;;5041753;28;20357;-84
2023/05/26 09:30:37;;;;;;;6.38;1.90;;;24.70;57.50;;;;;;5025319;28;20489;-82
2023/05/26 09:33:04;;;;;;;7.65;2.03;;;24.80;58.50;;;;;;5061595;28;20629;-82
2023/05/26 09:35:38;;;;;;;10.57;2.08;;;25.00;59.00;;;;;;5040585;28;20454;-85
2023/05/26 09:38:09;;;;;;;6.03;2.07;;;25.20;58.00;;;;;;5022002;28;20020;-82
2023/05/26 09:40:43;;;;;;;6.60;1.95;;;25.40;56.60;;;;;;5072485;28;20048;-83
2023/05/26 09:43:10;;;;;;;6.63;1.95;;;25.60;57.00;;;;;;5035455;28;20724;-83
2023/05/26 09:45:37;;;;;;;7.57;2.10;;;25.70;57.30;;;;;;5026118;28;20517;-82
2023/05/26 09:48:05;;;;;;;6.60;2.08;;;25.80;56.70;;;;;;5047842;28;20055;-83
2023/05/26 09:50:35;;;;;;;6.87;2.30;;;25.90;56.50;;;;;;5038237;28;20501;-83
2023/05/26 09:53:03;;;;;;;6.25;2.08;;;26.00;55.30;;;;;;5014470;28;20099;-86
2023/05/26 09:55:30;;;;;;;7.30;2.25;;;26.10;55.20;;;;;;5030447;28;20028;-85
2023/05/26 09:58:15;;;;;;;8.13;2.45;;;26.10;54.10;;;;;;5022462;28;20033;-81
2023/05/26 10:00:43;;;;;;;6.20;2.40;;;26.10;53.20;;;;;;5026775;28;20474;-82
2023/05/26 10:03:14;;;;;;;6.53;2.20;;;26.20;53.60;;;;;;5045101;28;20029;-82
2023/05/26 10:05:45;;;;;;;6.43;2.20;;;26.20;53.40;;;;;;5053389;28;20885;-82
2023/05/26 10:08:12;;;;;;;5.85;2.00;;;26.30;53.40;;;;;;5049764;28;20179;-82
2023/05/26 10:10:39;;;;;;;6.55;2.05;;;26.40;53.40;;;;;;5048530;28;20021;-84
2023/05/26 10:13:06;;;;;;;5.22;2.08;;;26.50;53.30;;;;;;5047007;28;20055;-82
2023/05/26 10:15:33;;;;;;;5.97;2.10;;;26.60;52.50;;;;;;5045361;27;20100;-83
2023/05/26 10:18:01;;;;;;;8.13;2.33;;;26.70;52.60;;;;;;5047112;28;20025;-85
2023/05/26 10:20:28;;;;;;;6.47;2.10;;;26.90;51.90;;;;;;5045253;28;20028;-82
2023/05/26 10:23:05;;;;;;;5.25;2.10;;;26.90;51.30;;;;;;5029923;28;20036;-80
2023/05/26 10:25:51;;;;;;;6.07;2.22;;;27.00;50.50;;;;;;5048871;28;20043;-85
2023/05/26 10:28:36;;;;;;;7.40;2.30;;;27.00;48.80;;;;;;5017461;28;20124;-83
2023/05/26 10:31:02;;;;;;;7.93;2.22;;;26.90;48.50;;;;;;5010956;28;20282;-82
2023/05/26 10:33:43;;;;;;;6.18;2.13;;;26.90;49.30;;;;;;5046464;28;20041;-83
2023/05/26 10:36:18;;;;;;;6.18;2.20;;;26.90;46.90;;;;;;5046284;28;20222;-82
2023/05/26 10:38:46;;;;;;;5.93;2.05;;;26.80;48.50;;;;;;5027143;28;20478;-81
2023/05/26 10:41:28;;;;;;;5.83;2.00;;;26.80;48.80;;;;;;5037514;28;20021;-83
2023/05/26 10:43:55;;;;;;;6.35;2.45;;;26.90;48.60;;;;;;5045745;28;20037;-80
2023/05/26 10:46:21;;;;;;;6.07;1.98;;;27.00;48.00;;;;;;5013218;28;20070;-83
2023/05/26 10:48:57;;;;;;;8.10;2.20;;;27.10;48.00;;;;;;5049258;28;20060;-82
2023/05/26 10:51:28;;;;;;;6.60;1.67;;;27.10;45.90;;;;;;5063248;28;20524;-86
2023/05/26 10:53:56;;;;;;;4.00;1.77;;;27.30;47.70;;;;;;5026648;28;20090;-82
2023/05/26 10:56:48;;;;;;;5.40;1.70;;;27.40;48.10;;;;;;5075904;27;20039;-82
2023/05/26 10:59:22;;;;;;;6.55;1.90;;;27.70;47.90;;;;;;5030069;28;20035;-83
2023/05/26 11:01:53;;;;;;;5.10;1.95;;;27.80;46.20;;;;;;5045478;28;20520;-83
2023/05/26 11:04:19;;;;;;;6.33;2.00;;;28.00;47.10;;;;;;5047844;28;20460;-82
2023/05/26 11:06:46;;;;;;;6.57;2.05;;;28.10;47.20;;;;;;5080182;28;20099;-82
2023/05/26 11:09:13;;;;;;;5.95;2.05;;;28.20;46.90;;;;;;5065188;28;20249;-83
2023/05/26 11:11:50;;;;;;;5.00;2.15;;;28.30;46.70;;;;;;5025833;28;20025;-82
2023/05/26 11:14:33;;;;;;;5.60;1.92;;;28.40;45.30;;;;;;5047897;28;20032;-84
2023/05/26 11:17:04;;;;;;;5.57;1.90;;;28.50;44.20;;;;;;5045641;28;20517;-83
2023/05/26 11:19:39;;;;;;;6.05;2.03;;;28.50;43.60;;;;;;5009230;28;20036;-82
2023/05/26 11:22:06;;;;;;;4.60;1.67;;;28.50;44.00;;;;;;5045424;28;20819;-82
2023/05/26 11:24:32;;;;;;;5.47;2.00;;;28.50;44.60;;;;;;5052053;28;20119;-83
2023/05/26 11:27:03;;;;;;;4.53;1.73;;;28.50;44.30;;;;;;5039463;28;20249;-85
2023/05/26 11:29:30;;;;;;;5.80;1.80;;;28.50;43.30;;;;;;5065394;28;20029;-85
2023/05/26 11:31:56;;;;;;;4.72;1.80;;;28.60;43.50;;;;;;5039985;28;20729;-83
2023/05/26 11:34:22;;;;;;;5.97;2.10;;;28.60;43.50;;;;;;5026221;28;20112;-84
2023/05/26 11:36:51;;;;;;;5.32;1.70;;;28.70;44.00;;;;;;5049323;28;20032;-81
2023/05/26 11:39:17;;;;;;;6.30;2.00;;;28.70;44.00;;;;;;5068831;28;20021;-82
2023/05/26 11:41:43;;;;;;;5.33;1.60;;;28.80;43.30;;;;;;5037810;28;20028;-82
2023/05/26 11:44:13;;;;;;;4.28;1.60;;;28.90;43.30;;;;;;5031975;28;20617;-85
2023/05/26 11:46:40;;;;;;;4.30;1.60;;;28.90;43.30;;;;;;5050033;28;20029;-84
2023/05/26 11:49:17;;;;;;;3.60;1.60;;;29.00;43.30;;;;;;5010527;28;20692;-84
2023/05/26 11:51:50;;;;;;;5.25;1.70;;;29.20;41.60;;;;;;5046758;28;20028;-81
2023/05/26 11:54:20;;;;;;;7.27;2.00;;;29.30;41.20;;;;;;5050541;28;20020;-84
2023/05/26 11:56:47;;;;;;;4.82;1.48;;;29.30;41.30;;;;;;5036201;28;20031;-83
2023/05/26 11:59:20;;;;;;;6.60;1.70;;;29.30;41.30;;;;;;5024959;28;20185;-84
2023/05/26 12:01:47;;;;;;;5.18;1.80;;;29.40;41.80;;;;;;5045244;28;20325;-82
2023/05/26 12:04:13;;;;;;;6.00;1.63;;;29.40;41.10;;;;;;5024501;28;20157;-84
2023/05/26 12:06:42;;;;;;;5.67;1.83;;;29.30;40.70;;;;;;5053160;28;20036;-83
2023/05/26 12:09:20;;;;;;;4.22;1.70;;;29.30;40.00;;;;;;5062017;28;20038;-81
2023/05/26 12:11:47;;;;;;;4.53;1.67;;;29.30;39.00;;;;;;5050473;28;20029;-84
2023/05/26 12:14:14;;;;;;;4.00;1.80;;;29.20;40.10;;;;;;5035393;28;20346;-84
2023/05/26 12:16:46;;;;;;;6.00;2.10;;;29.10;39.70;;;;;;5041439;28;20047;-82
2023/05/26 12:19:21;;;;;;;5.40;1.80;;;29.10;39.20;;;;;;5054028;28;20020;-83
2023/05/26 12:21:56;;;;;;;5.00;1.80;;;29.10;38.90;;;;;;5055587;27;20033;-82
2023/05/26 12:24:38;;;;;;;5.82;1.88;;;29.10;38.80;;;;;;5050233;28;20210;-85
2023/05/26 12:27:07;;;;;;;4.97;1.70;;;29.00;37.70;;;;;;5079465;27;20206;-84
2023/05/26 12:29:41;;;;;;;7.70;2.33;;;29.00;38.60;;;;;;5037552;28;20448;-84
2023/05/26 12:32:08;;;;;;;5.13;1.90;;;29.00;38.00;;;;;;5041797;28;20067;-86
2023/05/26 12:34:35;;;;;;;6.30;1.83;;;28.90;37.90;;;;;;5081908;27;20382;-85
2023/05/26 12:37:01;;;;;;;5.47;1.77;;;28.90;38.60;;;;;;5022902;28;20266;-82
2023/05/26 12:39:28;;;;;;;5.10;1.93;;;28.90;38.40;;;;;;5041040;28;20025;-85
2023/05/26 12:41:54;;;;;;;8.97;1.90;;;28.90;38.00;;;;;;5061933;28;20320;-84
2023/05/26 12:44:20;;;;;;;4.47;1.80;;;28.90;38.20;;;;;;5042498;28;20036;-84
2023/05/26 12:46:46;;;;;;;4.85;1.75;;;28.90;37.90;;;;;;5046927;28;20079;-82
2023/05/26 12:49:12;;;;;;;4.78;1.60;;;28.90;37.80;;;;;;5051130;28;20021;-82